Time;durP1;ratioP1;P1;durP2;ratioP2;P2;SDS_P1;SDS_P2;PMS_P1;PMS_P2;Temp;Humidity;BMP_temperature;BMP_pressure;BME280_temperature;BME280_humidity;BME280_pressure;Samples;Min_cycle;Max_cycle;Signal;HPM_P1;HPM_P2
2021/06/04 00:01:14;;;;;;;7.97;3.90;;;;;;;17.32;46.08;95582.47;4998485;23;20045;-79
2021/06/04 00:03:40;;;;;;;12.00;4.55;;;;;;;17.32;46.31;95579.84;4993080;28;20266;-79
2021/06/04 00:06:06;;;;;;;6.75;4.30;;;;;;;17.30;46.24;95579.31;4975305;28;20489;-79
2021/06/04 00:08:31;;;;;;;10.15;3.75;;;;;;;17.31;46.16;95577.47;4964591;28;20035;-79
2021/06/04 00:11:26;;;;;;;14.32;3.75;;;;;;;17.34;45.83;95567.22;5167056;23;20047;-79
2021/06/04 00:13:57;;;;;;;14.73;3.78;;;;;;;17.29;45.09;95569.03;4965107;28;20035;-79
2021/06/04 00:16:31;;;;;;;5.55;3.17;;;;;;;17.27;45.42;95571.94;4918228;29;20063;-79
2021/06/04 00:19:01;;;;;;;6.00;3.78;;;;;;;17.29;44.79;95571.69;4926256;29;20039;-78
2021/06/04 00:21:29;;;;;;;5.68;3.28;;;;;;;17.29;45.34;95569.84;4944330;29;20055;-77
2021/06/04 00:23:57;;;;;;;8.13;3.30;;;;;;;17.25;44.91;95568.78;4924942;29;20506;-78
2021/06/04 00:26:22;;;;;;;5.85;3.25;;;;;;;17.28;44.44;95568.25;4930662;29;20475;-78
2021/06/04 00:28:48;;;;;;;5.53;3.60;;;;;;;17.22;44.05;95561.38;4935176;29;20055;-78
2021/06/04 00:31:14;;;;;;;3.97;3.58;;;;;;;17.22;43.81;95561.38;4934522;29;20114;-78
2021/06/04 00:33:39;;;;;;;6.28;3.53;;;;;;;17.13;43.92;95555.03;4948760;29;20043;-78
2021/06/04 00:36:05;;;;;;;9.98;3.60;;;;;;;17.12;43.94;95558.72;4934144;29;20032;-78
2021/06/04 00:38:31;;;;;;;14.00;3.92;;;;;;;17.05;44.00;95558.13;4935314;29;20031;-77
2021/06/04 00:40:57;;;;;;;10.18;3.97;;;;;;;17.00;43.96;95560.72;4934767;29;20090;-78
2021/06/04 00:43:23;;;;;;;5.70;3.53;;;;;;;17.00;43.80;95561.50;4948658;29;20040;-78
2021/06/04 00:45:50;;;;;;;8.27;4.30;;;;;;;16.96;43.66;95568.31;4934550;29;20555;-78
2021/06/04 00:48:15;;;;;;;9.13;3.58;;;;;;;16.95;43.93;95566.75;4948414;29;20107;-78
2021/06/04 00:51:01;;;;;;;4.50;3.78;;;;;;;16.86;43.67;95560.38;4942219;29;20031;-78
2021/06/04 00:53:26;;;;;;;7.93;4.05;;;;;;;16.84;43.86;95565.09;4941300;29;20098;-79
2021/06/04 00:55:53;;;;;;;9.23;3.42;;;;;;;16.85;43.82;95568.50;4934364;29;20099;-77
2021/06/04 00:58:30;;;;;;;12.13;4.40;;;;;;;16.81;44.07;95560.34;4900102;29;20045;-77
2021/06/04 01:00:56;;;;;;;6.63;3.80;;;;;;;16.84;43.58;95556.41;4931278;29;20067;-78
2021/06/04 01:03:27;;;;;;;8.00;3.78;;;;;;;16.84;43.59;95567.72;4947769;29;20050;-78
2021/06/04 01:05:54;;;;;;;14.70;4.00;;;;;;;16.84;44.06;95561.66;4932884;29;20035;-77
2021/06/04 01:08:42;;;;;;;7.65;4.10;;;;;;;16.84;44.34;95564.28;4917283;29;20094;-78
2021/06/04 01:11:25;;;;;;;4.38;3.00;;;;;;;16.80;44.65;95564.81;4904626;29;20040;-78
2021/06/04 01:14:21;;;;;;;8.80;3.42;;;;;;;16.79;44.60;95575.56;4926091;29;20401;-79
2021/06/04 01:16:59;;;;;;;8.93;4.07;;;;;;;16.82;44.86;95576.91;4936102;29;20055;-78
2021/06/04 01:19:33;;;;;;;8.30;3.40;;;;;;;16.81;45.26;95573.47;4931778;29;20036;-78
2021/06/04 01:22:01;;;;;;;9.25;3.92;;;;;;;16.83;45.23;95581.09;4932153;29;20114;-78
2021/06/04 01:25:03;;;;;;;11.00;3.63;;;;;;;16.81;45.08;95570.84;4932615;29;20114;-77
2021/06/04 01:27:36;;;;;;;10.27;4.32;;;;;;;16.79;45.24;95571.09;4922353;29;20043;-78
2021/06/04 01:30:26;;;;;;;7.93;3.63;;;;;;;16.73;44.88;95566.84;4931342;29;20031;-77
2021/06/04 01:32:51;;;;;;;10.88;3.30;;;;;;;16.73;44.84;95566.84;4933025;29;20820;-78
2021/06/04 01:35:23;;;;;;;12.07;3.95;;;;;;;16.71;45.23;95565.50;4931872;29;20055;-78
2021/06/04 01:37:49;;;;;;;6.32;4.10;;;;;;;16.73;45.85;95577.34;4909282;29;20027;-79
2021/06/04 01:40:26;;;;;;;5.50;3.95;;;;;;;16.68;45.69;95566.81;4917574;29;20487;-78
2021/06/04 01:42:52;;;;;;;11.57;4.00;;;;;;;16.67;46.40;95567.84;4909569;29;20048;-77
2021/06/04 01:45:40;;;;;;;10.07;4.38;;;;;;;16.67;46.69;95567.84;4935017;29;20094;-78
2021/06/04 01:48:11;;;;;;;8.90;4.15;;;;;;;16.62;46.51;95572.25;4933347;29;20050;-78
2021/06/04 01:50:42;;;;;;;7.47;4.60;;;;;;;16.62;46.68;95570.41;4942663;29;20416;-78
2021/06/04 01:53:11;;;;;;;6.30;4.00;;;;;;;16.63;46.66;95574.63;4948592;29;20048;-78
2021/06/04 01:55:39;;;;;;;7.97;4.30;;;;;;;16.60;46.62;95577.75;4949848;29;20036;-77
2021/06/04 01:58:16;;;;;;;9.43;4.75;;;;;;;16.56;45.95;95576.66;4933049;29;20047;-78
2021/06/04 02:00:57;;;;;;;7.38;5.20;;;;;;;16.57;46.35;95575.59;4936393;29;20110;-78
2021/06/04 02:03:24;;;;;;;6.95;4.20;;;;;;;16.52;46.16;95576.38;4913176;29;20103;-78
2021/06/04 02:05:50;;;;;;;20.08;5.93;;;;;;;16.53;45.97;95579.78;4928595;29;20114;-78
2021/06/04 02:08:20;;;;;;;11.68;4.32;;;;;;;16.48;47.34;95579.75;4931199;29;20042;-78
2021/06/04 02:10:47;;;;;;;13.85;4.88;;;;;;;16.46;47.32;95576.59;4919102;29;20143;-80
2021/06/04 02:13:13;;;;;;;20.42;5.22;;;;;;;16.45;47.98;95581.03;4936635;29;20047;-78
2021/06/04 02:15:49;;;;;;;7.78;3.63;;;;;;;16.39;48.23;95570.72;4951604;29;20036;-80
2021/06/04 02:18:26;;;;;;;6.25;4.00;;;;;;;16.35;48.48;95580.16;4926196;29;20043;-77
2021/06/04 02:21:26;;;;;;;5.05;3.53;;;;;;;16.27;47.52;95580.59;4916145;29;20099;-77
2021/06/04 02:24:12;;;;;;;6.55;3.30;;;;;;;16.24;48.37;95586.34;4856027;29;20049;-78
2021/06/04 02:26:50;;;;;;;8.95;3.72;;;;;;;16.19;49.14;95581.84;4883483;29;20068;-78
2021/06/04 02:29:24;;;;;;;7.28;3.15;;;;;;;16.23;48.06;95592.63;4922167;29;20076;-79
2021/06/04 02:31:57;;;;;;;15.55;3.42;;;;;;;16.24;48.02;95578.47;4925026;23;20096;-78
2021/06/04 02:34:26;;;;;;;8.65;3.58;;;;;;;16.24;47.42;95589.75;4923544;23;20032;-79
2021/06/04 02:37:17;;;;;;;9.25;3.35;;;;;;;16.19;46.67;95593.13;4937271;29;20040;-79
2021/06/04 02:39:48;;;;;;;5.90;3.92;;;;;;;16.15;46.59;95601.75;4921284;29;20107;-79
2021/06/04 02:42:28;;;;;;;7.60;3.22;;;;;;;16.18;46.32;95599.41;4919262;29;20118;-79
2021/06/04 02:45:05;;;;;;;7.60;3.40;;;;;;;16.17;46.32;95604.91;4917699;29;20042;-79
2021/06/04 02:47:36;;;;;;;6.15;3.15;;;;;;;16.18;45.98;95596.78;4934981;29;20035;-79
2021/06/04 02:50:09;;;;;;;3.72;3.38;;;;;;;16.16;45.79;95588.38;4939048;29;20107;-79
2021/06/04 02:52:37;;;;;;;5.32;3.05;;;;;;;16.15;45.75;95597.28;4929269;29;20123;-79
2021/06/04 02:55:27;;;;;;;5.50;2.97;;;;;;;16.22;45.07;95597.09;4901990;29;20142;-78
2021/06/04 02:57:56;;;;;;;3.25;2.95;;;;;;;16.13;45.35;95594.13;4923709;29;20304;-77
2021/06/04 03:00:32;;;;;;;5.45;2.83;;;;;;;16.18;45.33;95601.25;4940072;28;20043;-79
2021/06/04 03:02:58;;;;;;;3.33;3.05;;;;;;;16.17;45.63;95603.09;4939626;29;20039;-79
2021/06/04 03:05:26;;;;;;;11.77;3.72;;;;;;;16.15;45.61;95605.16;4936635;29;20066;-79
2021/06/04 03:07:51;;;;;;;3.42;3.13;;;;;;;16.16;45.34;95609.38;4936138;29;20050;-79
2021/06/04 03:10:28;;;;;;;8.10;3.75;;;;;;;16.17;45.31;95607.53;4935818;29;20489;-78
2021/06/04 03:12:54;;;;;;;8.32;3.67;;;;;;;16.12;45.37;95612.75;4930282;29;20035;-81
2021/06/04 03:15:38;;;;;;;3.95;3.45;;;;;;;16.16;45.43;95616.44;4927644;29;20043;-81
2021/06/04 03:18:04;;;;;;;5.72;3.10;;;;;;;16.20;45.39;95615.69;4919983;29;20039;-80
2021/06/04 03:20:32;;;;;;;5.88;3.30;;;;;;;16.17;45.65;95621.44;4928567;29;20043;-80
2021/06/04 03:22:58;;;;;;;5.70;4.00;;;;;;;16.18;45.63;95625.66;4987420;23;20052;-79
2021/06/04 03:25:29;;;;;;;5.05;4.30;;;;;;;16.09;46.32;95619.25;4939938;29;20111;-81
2021/06/04 03:27:55;;;;;;;9.07;4.72;;;;;;;16.16;46.62;95627.75;4908919;29;20114;-79
2021/06/04 03:30:26;;;;;;;13.10;4.40;;;;;;;16.17;46.16;95631.94;4902251;29;20064;-80
2021/06/04 03:32:51;;;;;;;14.27;5.57;;;;;;;16.19;46.74;95637.75;4926656;29;20039;-77
2021/06/04 03:37:42;;;;;;;9.37;4.40;;;;;;;16.23;46.31;95626.75;4948590;23;20094;-78
2021/06/04 03:42:36;;;;;;;11.40;3.70;;;;;;;16.28;45.17;95632.06;4999152;23;20057;-78
2021/06/04 03:45:04;;;;;;;10.63;4.05;;;;;;;16.26;45.43;95634.13;4971862;28;20406;-78
2021/06/04 03:47:30;;;;;;;5.25;3.95;;;;;;;16.30;45.70;95640.47;4963458;28;20085;-78
2021/06/04 03:52:36;;;;;;;10.05;3.80;;;;;;;16.32;45.59;95635.78;4959769;28;20577;-77
2021/06/04 03:55:03;;;;;;;23.27;4.30;;;;;;;16.33;45.81;95642.59;4967771;28;20070;-80
2021/06/04 03:57:31;;;;;;;10.25;3.80;;;;;;;16.37;45.53;95633.19;4945593;28;20036;-80
2021/06/04 03:59:56;;;;;;;10.40;4.05;;;;;;;16.39;45.95;95639.78;4948170;28;20031;-80
2021/06/04 04:02:28;;;;;;;14.25;3.88;;;;;;;16.42;46.55;95647.16;4938798;29;20400;-78
2021/06/04 04:04:58;;;;;;;33.03;5.05;;;;;;;16.47;46.76;95643.81;4977310;23;20122;-82
2021/06/04 04:07:25;;;;;;;20.98;5.63;;;;;;;16.48;47.19;95637.50;4967467;28;20100;-80
2021/06/04 04:09:50;;;;;;;27.92;6.13;;;;;;;16.52;46.95;95641.22;4969112;28;20426;-80
2021/06/04 04:12:17;;;;;;;19.65;6.18;;;;;;;16.51;47.17;95647.50;4964223;28;20066;-81
2021/06/04 04:14:43;;;;;;;16.33;5.95;;;;;;;16.55;46.92;95647.78;4933081;29;20142;-83
2021/06/04 04:17:09;;;;;;;26.55;5.95;;;;;;;16.58;47.24;95650.72;4973143;28;20031;-80
2021/06/04 04:19:34;;;;;;;13.23;6.30;;;;;;;16.58;47.56;95648.09;4949502;29;20097;-81
2021/06/04 04:22:27;;;;;;;;;;;;;;;;;;;;;
2021/06/04 04:25:19;;;;;;;21.20;5.82;;;;;;;16.75;48.14;95653.25;4952005;28;20115;-79
2021/06/04 04:27:45;;;;;;;24.63;5.80;;;;;;;16.79;48.09;95655.16;4972190;28;20117;-78
2021/06/04 04:30:13;;;;;;;17.13;6.25;;;;;;;16.81;47.77;95654.91;4964183;28;20458;-77
2021/06/04 04:32:38;;;;;;;14.15;5.75;;;;;;;16.84;47.83;95656.22;4933037;29;20039;-80
2021/06/04 04:35:07;;;;;;;26.20;5.65;;;;;;;16.91;48.18;95656.81;4971085;28;20422;-79
2021/06/04 04:37:33;;;;;;;19.85;6.90;;;;;;;16.95;48.34;95657.91;4974633;28;20035;-79
2021/06/04 04:39:58;;;;;;;18.88;5.30;;;;;;;16.98;48.08;95660.03;4967989;28;20050;-79
2021/06/04 04:42:24;;;;;;;20.63;5.32;;;;;;;17.03;48.13;95663.47;4982836;28;20521;-78
2021/06/04 04:44:50;;;;;;;14.70;4.95;;;;;;;16.98;48.33;95665.28;4967993;28;20443;-79
2021/06/04 04:47:16;;;;;;;24.63;4.88;;;;;;;17.02;48.66;95658.47;4971459;28;20060;-81
2021/06/04 04:49:42;;;;;;;28.80;7.40;;;;;;;17.14;48.53;95661.72;4962868;28;20555;-83
2021/06/04 04:52:11;;;;;;;30.73;5.82;;;;;;;17.22;48.24;95663.09;4960898;28;20031;-81
2021/06/04 04:54:39;;;;;;;26.80;5.68;;;;;;;17.28;48.56;95660.25;4939244;29;20082;-81
2021/06/04 04:57:05;;;;;;;24.13;6.93;;;;;;;17.37;48.20;95671.88;4961075;28;20086;-82
2021/06/04 04:59:35;;;;;;;14.50;5.43;;;;;;;17.36;48.31;95665.03;4990759;28;20046;-82
2021/06/04 05:02:01;;;;;;;26.08;6.70;;;;;;;17.44;47.91;95671.66;4977457;28;20031;-81
2021/06/04 05:04:26;;;;;;;18.48;4.97;;;;;;;17.52;47.27;95673.81;4947118;28;20422;-83
2021/06/04 05:06:52;;;;;;;37.30;7.13;;;;;;;17.58;47.23;95677.28;4970203;28;20026;-81
2021/06/04 05:09:17;;;;;;;61.08;9.05;;;;;;;17.63;48.22;95674.66;4959248;28;20042;-80
2021/06/04 05:11:45;;;;;;;35.60;6.95;;;;;;;17.79;46.92;95668.47;4953183;28;20038;-80
2021/06/04 05:14:10;;;;;;;27.25;6.28;;;;;;;17.87;45.44;95675.88;4942831;28;20053;-80
2021/06/04 05:16:36;;;;;;;21.17;5.93;;;;;;;18.01;44.82;95681.47;4972193;28;20050;-79
2021/06/04 05:19:01;;;;;;;37.90;8.07;;;;;;;18.14;44.61;95685.47;4964461;28;20478;-80
2021/06/04 05:21:27;;;;;;;23.40;5.70;;;;;;;18.32;44.10;95681.56;4982312;28;20061;-80
2021/06/04 05:23:54;;;;;;;19.42;5.63;;;;;;;18.55;44.51;95681.13;4964283;28;20039;-81
2021/06/04 05:26:19;;;;;;;19.75;4.97;;;;;;;18.80;44.21;95683.03;4975638;28;20043;-81
2021/06/04 05:28:45;;;;;;;20.05;5.93;;;;;;;19.03;43.01;95677.22;4962599;28;20045;-80
2021/06/04 05:31:12;;;;;;;27.55;4.97;;;;;;;19.35;41.19;95679.59;4969203;28;20039;-81
2021/06/04 05:33:39;;;;;;;13.30;5.68;;;;;;;19.64;41.37;95685.13;4969688;28;20070;-81
2021/06/04 05:36:13;;;;;;;20.38;7.20;;;;;;;20.00;40.63;95685.03;4960347;28;20486;-80
2021/06/04 05:38:38;;;;;;;10.40;4.47;;;;;;;20.32;39.36;95690.69;4973836;23;20156;-80
2021/06/04 05:41:04;;;;;;;18.35;3.83;;;;;;;20.67;39.19;95691.63;4963885;28;20046;-81
2021/06/04 05:43:32;;;;;;;14.75;4.22;;;;;;;20.95;38.43;95693.53;4947936;28;20038;-81
2021/06/04 05:45:57;;;;;;;7.72;3.67;;;;;;;21.49;36.46;95694.47;4976937;28;20034;-81
2021/06/04 05:48:23;;;;;;;8.35;3.70;;;;;;;22.10;35.44;95689.34;4960226;28;20230;-80
2021/06/04 05:50:50;;;;;;;15.68;4.30;;;;;;;22.61;34.59;95694.00;4931593;28;20102;-81
2021/06/04 05:53:17;;;;;;;10.32;3.70;;;;;;;23.11;33.05;95690.94;4964001;28;20139;-81
2021/06/04 05:55:44;;;;;;;10.30;3.90;;;;;;;25.59;28.75;95695.00;4964961;28;20419;-81
2021/06/04 05:58:28;;;;;;;8.65;3.55;;;;;;;28.03;24.43;95696.50;4961737;28;21082;-80
2021/06/04 06:00:55;;;;;;;8.25;3.22;;;;;;;28.65;23.88;95693.22;4961453;28;20035;-80
2021/06/04 06:03:26;;;;;;;14.95;3.50;;;;;;;29.59;22.58;95695.44;4973460;28;20032;-79
2021/06/04 06:05:51;;;;;;;12.65;3.45;;;;;;;31.56;20.79;95693.00;4960697;28;20053;-80
2021/06/04 06:08:17;;;;;;;6.65;2.58;;;;;;;33.86;17.96;95685.00;4963061;28;20035;-82
2021/06/04 06:10:42;;;;;;;15.43;3.42;;;;;;;35.49;16.41;95685.75;4960411;28;20494;-82
2021/06/04 06:13:08;;;;;;;17.08;3.40;;;;;;;36.54;15.29;95694.41;4962717;28;20069;-80
2021/06/04 06:15:34;;;;;;;7.90;2.97;;;;;;;36.86;15.56;95695.38;4964617;28;20475;-80
2021/06/04 06:17:59;;;;;;;4.43;2.85;;;;;;;38.46;14.29;95694.22;4960828;28;20442;-81
2021/06/04 06:20:27;;;;;;;16.48;2.63;;;;;;;39.41;13.63;95695.13;4979031;28;20418;-78
2021/06/04 06:23:12;;;;;;;10.15;2.95;;;;;;;40.72;12.71;95693.38;4977651;28;20042;-77
2021/06/04 06:25:43;;;;;;;8.43;3.10;;;;;;;41.09;11.64;95698.81;4958499;28;20031;-79
2021/06/04 06:28:12;;;;;;;3.95;2.25;;;;;;;41.27;12.02;95697.84;4944869;23;20593;-80
2021/06/04 06:30:38;;;;;;;7.57;2.92;;;;;;;41.20;12.19;95693.22;4958073;28;20039;-80
2021/06/04 06:33:11;;;;;;;8.23;3.10;;;;;;;41.27;12.05;95687.69;4959040;28;20483;-80
2021/06/04 06:35:50;;;;;;;10.43;2.45;;;;;;;40.79;12.41;95685.09;4949766;29;20522;-80
2021/06/04 06:38:18;;;;;;;4.80;1.75;;;;;;;40.88;11.80;95688.16;4928509;29;20044;-80
2021/06/04 06:40:44;;;;;;;12.50;2.35;;;;;;;39.69;12.57;95684.06;4947481;29;20034;-80
2021/06/04 06:43:11;;;;;;;7.78;2.70;;;;;;;38.87;13.73;95681.69;4947569;28;20027;-79
2021/06/04 06:45:37;;;;;;;6.88;2.58;;;;;;;39.17;13.14;95688.59;4927874;29;20031;-80
2021/06/04 06:48:05;;;;;;;11.32;2.55;;;;;;;38.72;13.99;95677.47;4944108;29;20157;-79
2021/06/04 06:50:31;;;;;;;7.22;2.95;;;;;;;40.22;12.80;95669.31;4945943;29;20043;-79
2021/06/04 06:53:03;;;;;;;3.70;2.80;;;;;;;40.18;12.38;95673.97;4925997;29;20044;-80
2021/06/04 06:55:30;;;;;;;7.78;2.25;;;;;;;39.51;12.96;95675.22;4942733;28;20114;-80
2021/06/04 06:57:56;;;;;;;11.55;2.58;;;;;;;38.60;13.23;95684.09;4945559;28;20040;-80
2021/06/04 07:00:24;;;;;;;6.70;1.77;;;;;;;37.62;14.30;95677.47;4944640;29;20075;-80
2021/06/04 07:02:50;;;;;;;4.18;1.67;;;;;;;36.56;14.96;95673.13;4923288;29;20028;-80
2021/06/04 07:05:16;;;;;;;3.55;1.98;;;;;;;35.66;15.35;95668.13;4948252;28;20065;-79
2021/06/04 07:07:42;;;;;;;6.15;2.13;;;;;;;34.42;16.51;95668.16;4971743;23;20146;-80
2021/06/04 07:10:09;;;;;;;7.43;2.22;;;;;;;34.09;17.14;95682.28;4983450;28;20053;-80
2021/06/04 07:12:35;;;;;;;7.53;2.08;;;;;;;34.01;17.57;95676.00;4976012;28;20098;-78
2021/06/04 07:15:09;;;;;;;10.00;2.83;;;;;;;31.29;20.09;95670.41;4964212;28;20035;-79
2021/06/04 07:17:38;;;;;;;4.25;2.33;;;;;;;30.37;21.92;95681.13;4974556;28;20047;-80
2021/06/04 07:20:05;;;;;;;4.65;2.67;;;;;;;29.97;22.49;95679.09;4947600;28;20033;-80
2021/06/04 07:22:31;;;;;;;3.42;2.25;;;;;;;29.89;22.84;95677.28;4972480;28;20106;-80
2021/06/04 07:24:57;;;;;;;5.72;2.80;;;;;;;30.23;21.66;95664.56;4967207;28;20119;-80
2021/06/04 07:27:22;;;;;;;3.63;2.40;;;;;;;30.47;21.61;95670.72;4966702;28;20060;-82
2021/06/04 07:29:48;;;;;;;4.20;2.45;;;;;;;30.78;21.53;95663.97;4970834;28;20059;-83
2021/06/04 07:32:13;;;;;;;5.68;2.90;;;;;;;30.35;21.90;95673.41;4966121;28;20023;-82
2021/06/04 07:34:39;;;;;;;6.35;2.83;;;;;;;30.29;21.72;95677.44;4934268;28;20035;-81
2021/06/04 07:37:04;;;;;;;12.70;3.88;;;;;;;30.07;21.90;95678.66;4957675;28;20086;-78
2021/06/04 07:39:32;;;;;;;19.48;3.45;;;;;;;29.94;21.87;95678.97;4964439;28;20024;-79
2021/06/04 07:41:59;;;;;;;4.10;2.30;;;;;;;29.77;21.64;95680.72;4924459;28;20122;-78
2021/06/04 07:44:24;;;;;;;14.30;3.75;;;;;;;29.21;22.41;95679.56;4929078;28;20058;-78
2021/06/04 07:46:51;;;;;;;7.05;2.92;;;;;;;28.63;23.06;95682.03;4963586;28;20035;-79
2021/06/04 07:49:16;;;;;;;2.78;2.30;;;;;;;28.46;23.14;95676.78;4962898;28;20027;-78
2021/06/04 07:51:46;;;;;;;5.13;2.60;;;;;;;28.42;23.72;95681.22;4933743;28;20458;-78
2021/06/04 07:54:12;;;;;;;8.90;2.95;;;;;;;28.09;24.32;95686.41;4956649;28;20062;-77
2021/06/04 07:56:41;;;;;;;4.85;3.30;;;;;;;27.74;24.99;95691.09;4958425;28;20435;-78
2021/06/04 07:59:06;;;;;;;6.53;2.50;;;;;;;27.61;25.51;95692.06;4966937;28;20042;-77
2021/06/04 08:01:32;;;;;;;4.47;2.63;;;;;;;26.97;25.68;95692.72;4956617;28;20103;-77
2021/06/04 08:03:58;;;;;;;7.20;2.53;;;;;;;25.10;28.35;95702.81;4966820;28;20035;-77
2021/06/04 08:06:24;;;;;;;7.18;3.05;;;;;;;24.88;28.67;95705.41;4954347;28;20027;-78
2021/06/04 08:08:53;;;;;;;13.23;3.55;;;;;;;25.02;29.50;95702.75;4946102;28;20057;-77
2021/06/04 08:11:28;;;;;;;7.18;3.28;;;;;;;24.09;29.50;95703.06;4965318;28;20034;-79
2021/06/04 08:13:57;;;;;;;13.35;3.10;;;;;;;24.03;30.27;95703.44;4917293;28;20035;-79
2021/06/04 08:16:23;;;;;;;3.00;2.55;;;;;;;24.27;29.24;95704.03;4948610;28;20106;-79
2021/06/04 08:18:48;;;;;;;4.50;2.42;;;;;;;23.84;30.17;95706.97;4956541;28;20034;-78
2021/06/04 08:21:20;;;;;;;8.90;3.00;;;;;;;23.80;30.01;95703.34;4953957;28;20039;-78
2021/06/04 08:23:46;;;;;;;4.80;2.67;;;;;;;24.05;30.13;95690.66;4932100;28;20031;-78
2021/06/04 08:26:17;;;;;;;3.92;2.63;;;;;;;23.79;29.51;95696.44;4947373;28;20063;-78
2021/06/04 08:28:43;;;;;;;8.20;3.03;;;;;;;23.62;30.22;95696.22;4932840;28;20049;-78
2021/06/04 08:31:08;;;;;;;8.13;3.88;;;;;;;23.34;30.52;95700.66;4947510;28;20035;-80
2021/06/04 08:33:39;;;;;;;7.03;2.67;;;;;;;23.63;30.36;95700.47;4917031;28;20038;-78
2021/06/04 08:36:05;;;;;;;4.10;3.00;;;;;;;23.87;29.27;95697.63;4965668;28;20041;-79
2021/06/04 08:38:34;;;;;;;8.82;2.45;;;;;;;23.76;29.61;95697.03;4964770;28;20046;-79
2021/06/04 08:41:37;;;;;;;9.38;2.45;;;;;;;24.24;29.48;95696.63;4963868;28;20035;-78
2021/06/04 08:44:12;;;;;;;5.32;2.60;;;;;;;24.72;28.22;95701.50;4961843;28;20035;-79
2021/06/04 08:46:43;;;;;;;6.13;2.40;;;;;;;25.02;27.83;95703.53;4959407;28;20535;-78
2021/06/04 08:49:32;;;;;;;4.13;2.20;;;;;;;25.46;27.52;95691.31;4960967;28;20067;-79
2021/06/04 08:52:21;;;;;;;8.68;3.05;;;;;;;25.92;28.00;95696.28;4938762;28;20043;-78
2021/06/04 08:55:13;;;;;;;7.72;2.70;;;;;;;26.28;25.76;95698.75;4962254;28;20047;-79
2021/06/04 08:57:57;;;;;;;;;;;;;;;26.51;25.79;95698.66;4982126;23;20075;-78
2021/06/04 09:00:31;;;;;;;3.28;2.30;;;;;;;26.68;25.95;95690.69;4939623;29;19925;-78
2021/06/04 09:03:02;;;;;;;8.75;2.55;;;;;;;26.92;25.94;95698.25;4951742;23;20059;-79
2021/06/04 09:05:48;;;;;;;9.63;2.45;;;;;;;27.11;25.82;95693.41;4914516;29;20044;-80
2021/06/04 09:08:26;;;;;;;6.22;2.33;;;;;;;27.28;25.76;95692.59;4934717;29;20046;-80
2021/06/04 09:10:57;;;;;;;6.90;2.90;;;;;;;27.39;25.46;95687.72;4935732;29;20154;-78
2021/06/04 09:13:29;;;;;;;6.45;2.38;;;;;;;27.57;25.08;95691.13;4930322;29;20411;-68
2021/06/04 09:16:03;;;;;;;8.25;2.40;;;;;;;27.58;25.66;95688.13;4938689;29;20094;-68
2021/06/04 09:18:37;;;;;;;6.43;2.25;;;;;;;27.60;24.91;95693.16;4922924;29;20035;-68
2021/06/04 09:21:05;;;;;;;3.90;1.98;;;;;;;27.64;24.90;95689.56;4937105;28;20491;-68
2021/06/04 09:23:35;;;;;;;2.85;2.10;;;;;;;27.65;24.54;95691.13;4913875;29;20039;-68
2021/06/04 09:26:01;;;;;;;5.25;2.10;;;;;;;27.49;24.17;95682.00;4938504;29;20065;-67
2021/06/04 09:28:33;;;;;;;8.63;2.40;;;;;;;27.56;24.38;95677.00;4937181;29;20499;-68
2021/06/04 09:31:20;;;;;;;14.13;2.45;;;;;;;27.71;24.65;95683.75;4941747;28;20063;-68
2021/06/04 09:33:48;;;;;;;8.38;2.70;;;;;;;27.69;23.96;95680.59;4929508;29;20052;-68
2021/06/04 09:36:16;;;;;;;9.20;3.08;;;;;;;27.60;23.84;95683.25;4932177;29;20573;-68
2021/06/04 09:38:50;;;;;;;4.78;2.53;;;;;;;27.35;24.00;95682.22;4940740;29;20503;-68
2021/06/04 09:41:37;;;;;;;7.65;2.97;;;;;;;27.09;24.17;95676.13;4937318;29;20044;-68
2021/06/04 09:44:02;;;;;;;2.67;2.47;;;;;;;27.05;24.22;95677.88;4936185;29;20051;-68
2021/06/04 09:46:51;;;;;;;6.65;2.03;;;;;;;26.81;24.16;95673.75;4937521;29;20047;-68
2021/06/04 09:49:27;;;;;;;5.43;2.00;;;;;;;26.89;24.34;95670.31;4935734;29;20079;-68
2021/06/04 09:51:57;;;;;;;3.58;2.10;;;;;;;26.93;23.85;95673.13;4932589;29;20063;-68
2021/06/04 09:54:28;;;;;;;4.63;2.00;;;;;;;27.07;24.16;95665.75;4938215;29;20091;-68
2021/06/04 09:57:07;;;;;;;7.93;2.95;;;;;;;27.07;24.63;95665.75;4931646;29;20452;-68
2021/06/04 09:59:32;;;;;;;6.53;2.38;;;;;;;27.05;24.06;95661.84;4931120;29;20059;-68
2021/06/04 10:02:00;;;;;;;8.02;2.38;;;;;;;27.18;25.06;95663.56;4936526;29;20427;-68
2021/06/04 10:04:31;;;;;;;16.38;3.00;;;;;;;27.18;25.30;95660.91;4936798;29;20043;-68
2021/06/04 10:07:16;;;;;;;3.70;2.15;;;;;;;27.10;23.67;95654.44;4935406;28;20042;-68
2021/06/04 10:09:45;;;;;;;4.10;2.10;;;;;;;26.70;23.55;95656.50;4934558;29;20040;-68
2021/06/04 10:12:35;;;;;;;4.05;2.00;;;;;;;26.44;23.80;95659.13;4918140;29;20043;-68
2021/06/04 10:15:27;;;;;;;6.07;2.00;;;;;;;25.93;24.67;95663.19;4923962;29;20055;-68
2021/06/04 10:20:30;;;;;;;12.83;2.83;;;;;;;25.42;25.47;95666.38;4935836;29;20032;-68
2021/06/04 10:23:13;;;;;;;4.30;2.10;;;;;;;25.48;25.33;95665.16;4933440;29;20523;-67
2021/06/04 10:25:45;;;;;;;7.10;2.58;;;;;;;25.22;25.61;95667.69;4925758;29;20074;-68
2021/06/04 10:28:36;;;;;;;2.63;1.77;;;;;;;25.18;26.31;95655.25;4934689;29;20027;-69
2021/06/04 10:31:21;;;;;;;11.85;2.28;;;;;;;25.37;26.28;95661.16;4909554;29;20032;-68
2021/06/04 10:34:15;;;;;;;5.30;2.28;;;;;;;25.55;25.39;95668.19;4941662;29;20511;-68
2021/06/04 10:36:43;;;;;;;7.63;1.67;;;;;;;25.82;25.76;95658.44;4924338;29;20043;-68
2021/06/04 10:39:20;;;;;;;11.52;2.40;;;;;;;26.06;26.03;95653.53;4924471;29;20028;-68
2021/06/04 10:41:59;;;;;;;8.90;3.28;;;;;;;26.01;26.77;95653.66;4943470;29;20571;-68
2021/06/04 10:44:37;;;;;;;14.65;2.95;;;;;;;26.13;26.13;95651.19;4950217;28;20047;-68
2021/06/04 10:47:13;;;;;;;4.00;1.90;;;;;;;26.26;24.59;95647.59;4943612;29;20415;-68
2021/06/04 10:50:26;;;;;;;5.57;1.73;;;;;;;26.40;23.73;95646.72;4947550;29;20038;-68
2021/06/04 10:52:59;;;;;;;5.53;2.00;;;;;;;26.21;23.93;95647.75;4950451;29;20055;-69
2021/06/04 10:55:30;;;;;;;4.75;1.98;;;;;;;26.15;24.36;95657.00;4939449;28;20042;-68
2021/06/04 10:58:01;;;;;;;7.63;2.08;;;;;;;26.30;24.60;95642.44;4915156;29;20044;-68
2021/06/04 11:00:30;;;;;;;11.20;1.90;;;;;;;26.43;24.18;95646.09;4939794;28;20447;-76
2021/06/04 11:03:01;;;;;;;9.35;1.80;;;;;;;26.63;24.69;95640.16;4931639;29;20036;-74
2021/06/04 11:05:33;;;;;;;4.47;2.28;;;;;;;26.50;24.27;95638.41;4933626;29;20471;-74
2021/06/04 11:07:58;;;;;;;;;;;;;;;26.26;24.98;95642.28;4941190;29;20036;-75
2021/06/04 11:10:29;;;;;;;13.63;2.50;;;;;;;26.04;25.03;95650.38;4934257;28;19975;-76
2021/06/04 11:13:09;;;;;;;7.15;2.03;;;;;;;26.03;25.44;95638.94;4921742;29;20523;-76
2021/06/04 11:15:44;;;;;;;5.65;3.03;;;;;;;26.10;25.97;95633.16;4935558;29;20177;-76
2021/06/04 11:18:38;;;;;;;5.53;2.42;;;;;;;26.16;26.08;95634.56;4938837;29;20139;-74
2021/06/04 11:21:04;;;;;;;3.85;1.88;;;;;;;26.21;25.47;95623.78;4932270;29;20099;-73
2021/06/04 11:23:50;;;;;;;12.40;2.35;;;;;;;26.13;26.50;95621.84;4922798;29;20035;-74
2021/06/04 11:26:47;;;;;;;12.10;2.30;;;;;;;26.25;26.39;95623.94;4925078;29;20591;-74
2021/06/04 11:29:18;;;;;;;4.13;2.42;;;;;;;26.38;25.30;95611.59;4923869;29;20051;-74
2021/06/04 11:31:56;;;;;;;2.92;1.92;;;;;;;26.46;25.60;95624.91;4938735;29;20426;-75
2021/06/04 11:34:41;;;;;;;2.60;2.35;;;;;;;26.49;25.81;95618.16;4937887;29;20066;-75
2021/06/04 11:37:09;;;;;;;9.93;2.13;;;;;;;26.53;25.71;95611.13;4925527;29;20541;-76
2021/06/04 11:39:35;;;;;;;3.58;2.38;;;;;;;26.50;25.59;95603.72;4950281;28;20063;-75
2021/06/04 11:42:06;;;;;;;3.00;2.00;;;;;;;26.38;25.59;95601.72;4938935;29;20039;-75
2021/06/04 11:44:43;;;;;;;4.72;2.10;;;;;;;26.19;26.12;95601.94;4945885;29;20400;-75
2021/06/04 11:47:12;;;;;;;8.63;1.95;;;;;;;26.15;25.27;95603.66;4914131;29;20091;-74
2021/06/04 11:49:57;;;;;;;6.63;2.22;;;;;;;26.13;26.27;95599.75;4930573;29;20034;-74
2021/06/04 11:52:29;;;;;;;5.32;2.08;;;;;;;26.10;26.67;95595.81;4935308;29;20031;-74
2021/06/04 11:55:28;;;;;;;8.10;1.98;;;;;;;26.19;25.98;95601.94;4935104;29;20063;-75
2021/06/04 11:57:54;;;;;;;3.38;2.20;;;;;;;26.13;26.12;95597.09;4910842;29;20051;-73
2021/06/04 12:00:26;;;;;;;6.18;2.20;;;;;;;26.21;26.51;95599.00;4936686;28;20417;-74
2021/06/04 12:02:52;;;;;;;9.95;2.38;;;;;;;26.20;26.94;95592.88;4935776;29;20094;-75